Terminal Aerodrome Forecast
Issued by NWS

Home | Current Version | Previous Version | Text Only | Print | Product List | Glossary On
Versions: 1 2 3 4 5 6 7 8 9 10 11 12 13 14 15 16
389
FTUS45 KABQ 110540
TAFTCC
TAF
KTCC 110540Z 1106/1206 23012G22KT P6SM BKN200
     FM111700 27015G25KT P6SM SCT150 BKN200
     FM112100 33011KT P6SM SCT150 SCT200=

USA.gov is the U.S. government's official web portal to all federal, state and local government web resources and services.